Time;durP1;ratioP1;P1;durP2;ratioP2;P2;SDS_P1;SDS_P2;PMS_P1;PMS_P2;Temp;Humidity;BMP_temperature;BMP_pressure;BME280_temperature;BME280_humidity;BME280_pressure;Samples;Min_cycle;Max_cycle;Signal;HPM_P1;HPM_P2
2021/12/26 00:00:54;;;;;;;3.17;1.70;;;-4.20;99.90;;;;;;5085110;28;20248;-58
2021/12/26 00:03:29;;;;;;;3.43;2.27;;;-4.20;99.90;;;;;;5102165;28;20200;-58
2021/12/26 00:06:00;;;;;;;4.23;2.27;;;-4.20;99.90;;;;;;5102152;28;20685;-58
2021/12/26 00:08:27;;;;;;;3.33;2.10;;;-4.20;99.90;;;;;;5084633;28;20235;-58
2021/12/26 00:10:54;;;;;;;2.97;1.80;;;-4.20;99.90;;;;;;5085089;28;20175;-58
2021/12/26 00:13:22;;;;;;;1.70;1.60;;;-4.20;99.90;;;;;;5088324;28;20283;-58
2021/12/26 00:15:49;;;;;;;3.43;2.03;;;-4.20;99.90;;;;;;5088049;28;20698;-58
2021/12/26 00:18:16;;;;;;;3.93;2.37;;;-4.30;99.90;;;;;;5087296;28;20248;-59
2021/12/26 00:20:50;;;;;;;3.50;2.10;;;-4.30;99.90;;;;;;5084043;28;20211;-58
2021/12/26 00:23:18;;;;;;;3.17;2.10;;;-4.20;99.90;;;;;;5082067;28;20610;-58
2021/12/26 00:25:45;;;;;;;4.20;2.17;;;-4.30;99.90;;;;;;5085350;28;20225;-58
2021/12/26 00:28:12;;;;;;;2.90;2.03;;;-4.30;99.90;;;;;;5087300;28;20186;-58
2021/12/26 00:30:39;;;;;;;4.17;2.20;;;-4.30;99.90;;;;;;5086019;28;20283;-58
2021/12/26 00:33:06;;;;;;;4.20;2.20;;;-4.20;99.90;;;;;;5084421;28;20203;-59
2021/12/26 00:35:33;;;;;;;3.80;2.30;;;-4.20;99.90;;;;;;5087658;28;20194;-59
2021/12/26 00:38:01;;;;;;;3.33;2.07;;;-4.30;99.90;;;;;;5086218;28;20220;-58
2021/12/26 00:40:29;;;;;;;3.80;2.20;;;-4.20;99.90;;;;;;5083006;28;20866;-58
2021/12/26 00:42:56;;;;;;;4.27;2.40;;;-4.20;99.90;;;;;;5085561;28;20199;-58
2021/12/26 00:45:23;;;;;;;3.07;1.87;;;-4.20;99.90;;;;;;5083064;28;20198;-58
2021/12/26 00:47:51;;;;;;;3.67;2.17;;;-4.20;99.90;;;;;;5085597;28;20707;-58
2021/12/26 00:50:25;;;;;;;3.50;2.10;;;-4.30;99.90;;;;;;5084212;28;20190;-58
2021/12/26 00:52:53;;;;;;;3.27;2.23;;;-4.20;99.90;;;;;;5084715;28;20193;-58
2021/12/26 00:55:20;;;;;;;3.00;2.13;;;-4.30;99.90;;;;;;5100294;28;20223;-59
2021/12/26 00:57:48;;;;;;;2.73;2.10;;;-4.30;99.90;;;;;;5086992;28;20214;-58
2021/12/26 01:00:30;;;;;;;2.97;1.80;;;-4.30;99.90;;;;;;5084386;28;20251;-58
2021/12/26 01:02:59;;;;;;;3.80;2.03;;;-4.30;99.90;;;;;;5084218;28;20232;-59
2021/12/26 01:05:28;;;;;;;3.07;2.20;;;-4.20;99.90;;;;;;5081196;28;20205;-58
2021/12/26 01:08:03;;;;;;;3.73;2.10;;;-4.30;99.90;;;;;;5078009;28;20197;-59
2021/12/26 01:10:39;;;;;;;5.30;2.27;;;-4.30;99.90;;;;;;5086052;28;20622;-59
2021/12/26 01:13:18;;;;;;;3.33;2.33;;;-4.30;99.90;;;;;;5083656;28;20252;-58
2021/12/26 01:15:47;;;;;;;2.97;2.20;;;-4.30;99.90;;;;;;5085853;28;20206;-58
2021/12/26 01:18:22;;;;;;;2.97;2.20;;;-4.30;99.90;;;;;;5081941;28;20209;-58
2021/12/26 01:21:05;;;;;;;2.63;1.90;;;-4.30;99.90;;;;;;5085687;28;20628;-59
2021/12/26 01:23:33;;;;;;;2.70;2.00;;;-4.40;99.90;;;;;;5069637;28;20210;-59
2021/12/26 01:26:01;;;;;;;2.93;2.07;;;-4.50;99.90;;;;;;5101406;28;20205;-59
2021/12/26 01:28:34;;;;;;;3.33;2.20;;;-4.40;99.90;;;;;;5101633;28;20205;-58
2021/12/26 01:31:04;;;;;;;2.57;2.20;;;-4.40;99.90;;;;;;5078757;28;20753;-58
2021/12/26 01:33:35;;;;;;;4.27;2.10;;;-4.40;99.90;;;;;;5067866;28;20231;-59
2021/12/26 01:36:21;;;;;;;2.67;1.80;;;-4.30;99.90;;;;;;5098592;28;20201;-58
2021/12/26 01:39:08;;;;;;;4.60;2.00;;;-4.30;99.90;;;;;;5081246;28;20246;-58
2021/12/26 01:42:01;;;;;;;2.17;1.80;;;-4.30;99.90;;;;;;5088386;28;20723;-59
2021/12/26 01:44:49;;;;;;;2.27;1.83;;;-4.30;99.90;;;;;;5056240;28;20208;-58
2021/12/26 01:47:20;;;;;;;3.57;2.20;;;-4.30;99.90;;;;;;5102673;28;20190;-58
2021/12/26 01:49:47;;;;;;;4.13;1.87;;;-4.30;99.90;;;;;;5086686;28;20202;-57
2021/12/26 01:52:14;;;;;;;2.73;1.97;;;-4.20;99.90;;;;;;5088576;28;20289;-58
2021/12/26 01:54:47;;;;;;;8.20;2.23;;;-4.20;99.90;;;;;;5104001;28;20206;-58
2021/12/26 01:57:17;;;;;;;3.43;1.93;;;-4.20;99.90;;;;;;5102710;28;20571;-58
2021/12/26 01:59:47;;;;;;;4.10;1.93;;;-4.30;99.90;;;;;;5078482;28;20977;-58
2021/12/26 02:02:21;;;;;;;2.10;1.77;;;-4.30;99.90;;;;;;5088216;28;20284;-58
2021/12/26 02:04:50;;;;;;;2.97;2.07;;;-4.30;99.90;;;;;;5071656;28;20218;-58
2021/12/26 02:07:19;;;;;;;4.83;2.30;;;-4.30;99.90;;;;;;5088067;28;20305;-58
2021/12/26 02:09:48;;;;;;;4.97;1.90;;;-4.30;99.90;;;;;;5086301;28;20817;-58
2021/12/26 02:12:19;;;;;;;4.07;2.43;;;-4.40;99.90;;;;;;5086718;28;20604;-58
2021/12/26 02:14:46;;;;;;;2.43;1.80;;;-4.30;99.90;;;;;;5077626;28;20194;-58
2021/12/26 02:17:24;;;;;;;2.97;2.07;;;-4.30;99.90;;;;;;5081822;28;20202;-58
2021/12/26 02:19:54;;;;;;;3.30;1.90;;;-4.30;99.90;;;;;;5086171;28;20249;-58
2021/12/26 02:22:28;;;;;;;2.87;2.03;;;-4.30;99.90;;;;;;5063267;28;20895;-58
2021/12/26 02:27:42;;;;;;;1.83;1.60;;;-4.30;99.90;;;;;;5086628;28;20200;-58
2021/12/26 02:30:13;;;;;;;3.90;1.80;;;-4.30;99.90;;;;;;5080632;28;20596;-58
2021/12/26 02:32:47;;;;;;;2.97;2.07;;;-4.30;99.90;;;;;;5085889;28;20192;-58
2021/12/26 02:35:15;;;;;;;6.67;2.27;;;-4.30;99.90;;;;;;5086274;28;20191;-58
2021/12/26 02:37:42;;;;;;;4.17;2.20;;;-4.30;99.90;;;;;;5085490;28;20233;-58
2021/12/26 02:40:10;;;;;;;3.57;2.17;;;-4.40;99.90;;;;;;5067498;28;20362;-58
2021/12/26 02:42:38;;;;;;;2.60;1.90;;;-4.40;99.90;;;;;;5086320;28;20225;-58
2021/12/26 02:45:06;;;;;;;4.33;2.03;;;-4.40;99.90;;;;;;5085792;28;20195;-59
2021/12/26 02:47:45;;;;;;;2.67;1.97;;;-4.40;99.90;;;;;;5083691;28;20190;-58
2021/12/26 02:50:15;;;;;;;2.27;2.03;;;-4.50;99.90;;;;;;5087713;28;20194;-58
2021/12/26 02:52:43;;;;;;;4.43;2.40;;;-4.40;99.90;;;;;;5079109;28;20305;-58
2021/12/26 02:55:12;;;;;;;2.47;1.80;;;-4.40;99.90;;;;;;5083135;28;20296;-58
2021/12/26 02:57:40;;;;;;;4.17;2.20;;;-4.40;99.90;;;;;;5101688;28;20198;-58
2021/12/26 03:00:12;;;;;;;4.13;2.10;;;-4.40;99.90;;;;;;5087145;28;20259;-59
2021/12/26 03:02:46;;;;;;;3.73;2.20;;;-4.40;99.90;;;;;;5097947;28;20603;-58
2021/12/26 03:05:15;;;;;;;4.27;2.10;;;-4.40;99.90;;;;;;5082010;28;20217;-58
2021/12/26 03:07:43;;;;;;;4.27;2.10;;;-4.40;99.90;;;;;;5087684;28;20538;-58
2021/12/26 03:10:21;;;;;;;3.57;2.47;;;-4.40;99.90;;;;;;5081622;28;20202;-58
2021/12/26 03:12:54;;;;;;;4.73;1.70;;;-4.40;99.90;;;;;;5088757;28;20268;-58
2021/12/26 03:15:22;;;;;;;4.27;2.53;;;-4.40;99.90;;;;;;5090416;28;20198;-58
2021/12/26 03:17:49;;;;;;;2.63;2.20;;;-4.50;99.90;;;;;;5089897;28;20274;-58
2021/12/26 03:20:19;;;;;;;3.77;2.20;;;-4.50;99.90;;;;;;5081927;28;20720;-58
2021/12/26 03:22:46;;;;;;;2.90;2.33;;;-4.40;99.90;;;;;;5088548;28;21182;-58
2021/12/26 03:25:19;;;;;;;4.60;1.90;;;-4.40;99.90;;;;;;5104372;28;20194;-58
2021/12/26 03:27:48;;;;;;;3.50;2.40;;;-4.50;99.90;;;;;;5090217;28;20190;-58
2021/12/26 03:30:19;;;;;;;2.93;2.30;;;-4.40;99.90;;;;;;5066711;28;20568;-58
2021/12/26 03:32:52;;;;;;;5.43;3.60;;;-4.40;99.90;;;;;;5102565;28;20545;-58
2021/12/26 03:35:21;;;;;;;3.77;2.27;;;-4.40;99.90;;;;;;5089390;28;20194;-57
2021/12/26 03:37:51;;;;;;;3.70;2.20;;;-4.40;99.90;;;;;;5088716;28;20210;-57
2021/12/26 03:40:42;;;;;;;2.93;2.10;;;-4.40;99.90;;;;;;5079573;28;20238;-58
2021/12/26 03:43:12;;;;;;;2.20;1.70;;;-4.40;99.90;;;;;;5104660;28;20248;-58
2021/12/26 03:45:44;;;;;;;2.23;1.83;;;-4.30;99.90;;;;;;5082338;28;20187;-58
2021/12/26 03:48:12;;;;;;;2.37;2.00;;;-4.30;99.90;;;;;;5105297;28;20200;-58
2021/12/26 03:50:41;;;;;;;4.50;2.10;;;-4.20;99.90;;;;;;5105360;28;20288;-58
2021/12/26 03:53:09;;;;;;;2.27;1.67;;;-4.20;99.90;;;;;;5078213;28;20190;-58
2021/12/26 03:55:37;;;;;;;2.50;2.00;;;-4.20;99.90;;;;;;5102581;28;20225;-58
2021/12/26 03:58:08;;;;;;;2.33;1.90;;;-4.20;99.90;;;;;;5104697;28;20288;-58
2021/12/26 04:00:36;;;;;;;2.90;2.03;;;-4.20;99.90;;;;;;5106206;28;20206;-58
2021/12/26 04:03:07;;;;;;;2.97;2.13;;;-4.20;99.90;;;;;;5085476;28;20738;-59
2021/12/26 04:05:42;;;;;;;2.83;2.10;;;-4.20;99.90;;;;;;5089637;28;20205;-58
2021/12/26 04:08:09;;;;;;;4.03;2.40;;;-4.20;99.90;;;;;;5085126;28;20323;-58
2021/12/26 04:10:37;;;;;;;2.23;1.83;;;-4.20;99.90;;;;;;5089872;28;20222;-58
2021/12/26 04:13:04;;;;;;;2.83;2.13;;;-4.20;99.90;;;;;;5105589;28;20697;-58
2021/12/26 04:15:33;;;;;;;4.03;2.40;;;-4.20;99.90;;;;;;5087033;28;20206;-58
2021/12/26 04:18:01;;;;;;;4.77;2.50;;;-4.20;99.90;;;;;;5079910;28;20214;-58
2021/12/26 04:20:29;;;;;;;2.27;1.77;;;-4.20;99.90;;;;;;5102627;28;20245;-58
2021/12/26 04:22:58;;;;;;;2.83;1.97;;;-4.10;99.90;;;;;;5088617;28;20187;-58
2021/12/26 04:25:26;;;;;;;2.93;2.03;;;-4.20;99.90;;;;;;5069559;28;20233;-58
2021/12/26 04:27:53;;;;;;;4.30;2.20;;;-4.10;99.90;;;;;;5089670;28;20259;-58
2021/12/26 04:30:22;;;;;;;3.43;2.30;;;-4.10;99.90;;;;;;5087468;28;20235;-58
2021/12/26 04:32:49;;;;;;;4.60;2.50;;;-4.10;99.90;;;;;;5087842;28;20264;-58
2021/12/26 04:35:17;;;;;;;3.40;2.17;;;-4.10;99.90;;;;;;5104059;28;20198;-59
2021/12/26 04:37:49;;;;;;;4.10;2.70;;;-4.10;99.90;;;;;;5081090;28;20225;-59
2021/12/26 04:40:17;;;;;;;2.40;1.83;;;-4.10;99.90;;;;;;5102692;28;20213;-58
2021/12/26 04:43:24;;;;;;;2.93;2.13;;;-4.10;99.90;;;;;;5073973;28;20276;-58
2021/12/26 04:46:05;;;;;;;3.57;2.40;;;-4.00;99.90;;;;;;5065234;28;20189;-58
2021/12/26 04:48:53;;;;;;;4.20;2.33;;;-4.00;99.90;;;;;;5079964;28;20211;-58
2021/12/26 04:51:20;;;;;;;5.20;2.80;;;-4.00;99.90;;;;;;5087138;28;20209;-58
2021/12/26 04:53:55;;;;;;;3.47;2.53;;;-3.90;99.90;;;;;;5102719;28;20197;-58
2021/12/26 04:56:22;;;;;;;4.13;2.27;;;-3.80;99.90;;;;;;5104299;28;20210;-58
2021/12/26 04:58:51;;;;;;;3.67;2.33;;;-3.80;99.90;;;;;;5071696;28;20216;-58
2021/12/26 05:01:18;;;;;;;2.00;1.83;;;-3.70;99.90;;;;;;5088926;28;20194;-58
2021/12/26 05:03:46;;;;;;;5.47;2.40;;;-3.60;99.90;;;;;;5089086;28;20256;-58
2021/12/26 05:06:13;;;;;;;5.40;2.60;;;-3.60;99.90;;;;;;5086065;28;20313;-58
2021/12/26 05:08:40;;;;;;;3.83;2.40;;;-3.50;99.90;;;;;;5063895;28;20607;-58
2021/12/26 05:11:07;;;;;;;4.30;2.40;;;-3.50;99.90;;;;;;5080458;28;20408;-58
2021/12/26 05:13:34;;;;;;;2.60;2.20;;;-3.50;99.90;;;;;;5085591;28;20648;-58
2021/12/26 05:16:01;;;;;;;3.93;2.50;;;-3.50;99.90;;;;;;5085959;28;20194;-58
2021/12/26 05:18:29;;;;;;;2.73;2.20;;;-3.50;99.90;;;;;;5088499;28;20255;-58
2021/12/26 05:21:08;;;;;;;4.10;2.70;;;-3.50;99.90;;;;;;5070792;28;20811;-58
2021/12/26 05:23:36;;;;;;;3.93;2.13;;;-3.50;99.90;;;;;;5080939;28;20558;-58
2021/12/26 05:26:04;;;;;;;3.50;2.20;;;-3.50;99.90;;;;;;5079106;28;20202;-58
2021/12/26 05:28:36;;;;;;;3.57;2.53;;;-3.50;99.90;;;;;;5087800;28;20195;-58
2021/12/26 05:31:05;;;;;;;3.97;2.33;;;-3.50;99.90;;;;;;5083212;28;20214;-58
2021/12/26 05:33:40;;;;;;;3.53;2.50;;;-3.50;99.90;;;;;;5102121;28;20197;-58
2021/12/26 05:36:07;;;;;;;3.97;2.53;;;-3.50;99.90;;;;;;5104010;28;20199;-58
2021/12/26 05:38:37;;;;;;;2.60;2.20;;;-3.50;99.90;;;;;;5100399;28;20214;-58
2021/12/26 05:41:07;;;;;;;3.60;2.70;;;-3.50;99.90;;;;;;5103317;28;20198;-58
2021/12/26 05:43:46;;;;;;;5.13;2.70;;;-3.50;99.90;;;;;;5103680;28;20243;-58
2021/12/26 05:46:14;;;;;;;3.03;2.13;;;-3.50;99.90;;;;;;5078549;28;20653;-58
2021/12/26 05:48:41;;;;;;;4.97;2.77;;;-3.50;1.00;;;;;;5078699;28;20658;-58
2021/12/26 05:51:23;;;;;;;3.53;2.60;;;-3.50;1.00;;;;;;5085593;28;20212;-58
2021/12/26 05:54:10;;;;;;;3.57;2.70;;;-3.50;1.00;;;;;;5077737;28;20212;-59
2021/12/26 05:56:38;;;;;;;3.73;2.73;;;-3.50;1.00;;;;;;5086415;28;20272;-58
2021/12/26 05:59:06;;;;;;;5.00;3.03;;;-3.50;1.00;;;;;;5062269;28;20847;-58
2021/12/26 06:01:33;;;;;;;4.87;3.13;;;-3.50;1.00;;;;;;5085350;28;20200;-59
2021/12/26 06:04:01;;;;;;;4.57;2.60;;;-3.50;1.00;;;;;;5083516;28;20620;-59
2021/12/26 06:06:31;;;;;;;7.37;3.77;;;-3.50;1.00;;;;;;5079648;28;20202;-58
2021/12/26 06:09:03;;;;;;;4.77;3.13;;;-3.40;1.00;;;;;;5102152;28;20225;-59
2021/12/26 06:11:30;;;;;;;4.07;2.90;;;-3.40;1.00;;;;;;5077821;28;20670;-58
2021/12/26 06:13:57;;;;;;;5.43;3.23;;;-3.40;1.00;;;;;;5078556;28;20222;-59
2021/12/26 06:16:24;;;;;;;4.40;2.77;;;-3.40;1.00;;;;;;5085174;28;20542;-58
2021/12/26 06:18:55;;;;;;;4.40;2.70;;;-3.30;1.00;;;;;;5086086;28;20236;-58
2021/12/26 06:21:40;;;;;;;5.40;3.00;;;-3.30;1.00;;;;;;5085046;28;20275;-58
2021/12/26 06:24:30;;;;;;;5.70;3.30;;;-3.30;1.00;;;;;;5077929;28;20214;-59
2021/12/26 06:27:16;;;;;;;5.20;2.97;;;-3.20;1.00;;;;;;5085712;28;20282;-59
2021/12/26 06:30:10;;;;;;;4.03;2.90;;;-3.30;1.00;;;;;;5054505;28;20234;-59
2021/12/26 06:32:49;;;;;;;4.17;3.40;;;-3.20;1.00;;;;;;5086752;28;20209;-58
2021/12/26 06:35:39;;;;;;;3.33;3.03;;;-3.30;1.00;;;;;;5088378;28;20206;-58
2021/12/26 06:38:26;;;;;;;4.97;3.23;;;-3.30;1.00;;;;;;5066747;28;20225;-58
2021/12/26 06:41:16;;;;;;;7.03;3.20;;;-3.30;1.00;;;;;;5069416;28;20210;-58
2021/12/26 06:44:09;;;;;;;5.27;3.57;;;-3.30;1.00;;;;;;5090366;28;20285;-58
2021/12/26 06:46:52;;;;;;;5.80;3.20;;;-3.20;1.00;;;;;;5082545;28;20280;-58
2021/12/26 06:49:34;;;;;;;6.43;3.70;;;-3.20;1.00;;;;;;5088098;28;20194;-59
2021/12/26 06:52:04;;;;;;;6.30;3.20;;;-3.20;1.00;;;;;;5086154;28;20198;-59
2021/12/26 06:54:31;;;;;;;4.27;3.47;;;-3.20;1.00;;;;;;5081813;28;20200;-59
2021/12/26 06:56:58;;;;;;;5.60;3.77;;;-3.20;1.00;;;;;;5088170;28;20236;-59
2021/12/26 06:59:26;;;;;;;5.37;3.57;;;-3.20;1.00;;;;;;5090824;28;20214;-58
2021/12/26 07:01:54;;;;;;;8.33;4.10;;;-3.10;1.00;;;;;;5086973;28;20198;-58
2021/12/26 07:04:25;;;;;;;4.47;3.40;;;-3.10;1.00;;;;;;5081036;28;20194;-59
2021/12/26 07:06:52;;;;;;;6.27;3.60;;;-3.10;1.00;;;;;;5088569;28;20682;-58
2021/12/26 07:09:24;;;;;;;6.50;4.03;;;-3.10;1.00;;;;;;5086980;28;20222;-58
2021/12/26 07:11:54;;;;;;;6.80;3.90;;;-3.00;1.00;;;;;;5103703;28;20191;-58
2021/12/26 07:14:42;;;;;;;6.50;3.57;;;-3.00;1.00;;;;;;5081400;28;20315;-58
2021/12/26 07:17:13;;;;;;;8.47;4.10;;;-2.90;1.00;;;;;;5101354;28;20201;-59
2021/12/26 07:19:44;;;;;;;4.90;3.57;;;-2.90;1.00;;;;;;5080244;28;20304;-59
2021/12/26 07:22:25;;;;;;;6.43;3.70;;;-2.90;1.00;;;;;;5086127;28;20206;-59
2021/12/26 07:24:52;;;;;;;5.77;3.90;;;-2.90;1.00;;;;;;5088200;28;20193;-59
2021/12/26 07:27:19;;;;;;;8.27;3.80;;;-2.80;1.00;;;;;;5081943;28;20187;-59
2021/12/26 07:30:15;;;;;;;7.00;4.03;;;-2.90;1.00;;;;;;5086680;28;20229;-58
2021/12/26 07:32:42;;;;;;;6.43;4.40;;;-2.90;1.00;;;;;;5089866;28;20202;-58
2021/12/26 07:35:10;;;;;;;6.03;4.00;;;-2.80;1.00;;;;;;5090280;28;20241;-58
2021/12/26 07:37:38;;;;;;;5.27;4.10;;;-2.80;1.00;;;;;;5103945;28;20202;-58
2021/12/26 07:40:08;;;;;;;7.03;3.97;;;-2.90;1.00;;;;;;5088241;28;20273;-59
2021/12/26 07:42:37;;;;;;;7.23;3.80;;;-2.90;1.00;;;;;;5088378;28;20232;-58
2021/12/26 07:45:22;;;;;;;7.17;4.40;;;-2.90;1.00;;;;;;5085350;28;20209;-58
2021/12/26 07:47:55;;;;;;;5.77;4.07;;;-2.90;1.00;;;;;;5087540;28;20191;-58
2021/12/26 07:50:22;;;;;;;5.87;3.90;;;-2.80;1.00;;;;;;5086913;28;20199;-59
2021/12/26 07:53:10;;;;;;;6.73;3.97;;;-2.80;1.00;;;;;;5089310;28;20280;-58
2021/12/26 07:55:56;;;;;;;6.40;4.27;;;-2.80;1.00;;;;;;5088457;28;20345;-58
2021/12/26 07:58:41;;;;;;;6.57;4.23;;;-2.80;1.00;;;;;;5089307;28;20569;-58
2021/12/26 08:01:28;;;;;;;7.03;4.50;;;-2.80;1.00;;;;;;5088262;28;20570;-58
2021/12/26 08:04:18;;;;;;;7.53;4.87;;;-2.70;1.00;;;;;;5090778;28;20225;-59
2021/12/26 08:07:08;;;;;;;6.77;4.37;;;-2.70;1.00;;;;;;5054404;28;20545;-59
2021/12/26 08:09:36;;;;;;;7.47;4.67;;;-2.60;1.00;;;;;;5104819;28;20259;-59
2021/12/26 08:12:04;;;;;;;6.90;4.63;;;-2.60;1.00;;;;;;5087994;28;20232;-60
2021/12/26 08:14:31;;;;;;;6.83;4.27;;;-2.50;1.00;;;;;;5104736;28;20209;-60
2021/12/26 08:16:58;;;;;;;6.83;5.00;;;-2.50;1.00;;;;;;5087577;28;20236;-59
2021/12/26 08:19:25;;;;;;;5.77;4.70;;;-2.50;1.00;;;;;;5089195;28;20198;-59
2021/12/26 08:21:54;;;;;;;7.60;4.77;;;-2.50;1.00;;;;;;5086965;28;20229;-58
2021/12/26 08:24:22;;;;;;;7.10;4.70;;;-2.40;1.00;;;;;;5088105;28;21006;-58
2021/12/26 08:26:51;;;;;;;7.60;5.50;;;-2.40;1.00;;;;;;5088343;28;20298;-59
2021/12/26 08:29:23;;;;;;;7.07;4.83;;;-2.40;1.00;;;;;;5086324;28;20395;-59
2021/12/26 08:31:58;;;;;;;7.13;4.57;;;-2.30;1.00;;;;;;5087722;28;20230;-59
2021/12/26 08:34:25;;;;;;;8.40;4.83;;;-2.30;1.00;;;;;;5089452;28;20190;-59
2021/12/26 08:36:59;;;;;;;7.33;5.30;;;-2.30;1.00;;;;;;5105210;28;20681;-59
2021/12/26 08:39:29;;;;;;;8.50;5.33;;;-2.20;1.00;;;;;;5087902;28;20260;-59
2021/12/26 08:41:56;;;;;;;6.27;4.93;;;-2.20;1.00;;;;;;5089325;28;20237;-59
2021/12/26 08:44:23;;;;;;;6.70;5.37;;;-2.20;1.00;;;;;;5088744;28;20187;-59
2021/12/26 08:46:51;;;;;;;6.83;5.00;;;-2.10;1.00;;;;;;5087766;28;20195;-59
2021/12/26 08:49:19;;;;;;;8.10;5.03;;;-2.10;1.00;;;;;;5087837;28;20234;-59
2021/12/26 08:51:47;;;;;;;9.63;5.30;;;-2.00;1.00;;;;;;5085671;28;20344;-59
2021/12/26 08:54:15;;;;;;;5.30;4.77;;;-2.10;1.00;;;;;;5089560;28;20206;-58
2021/12/26 08:56:44;;;;;;;9.43;5.23;;;-2.00;1.00;;;;;;5087146;28;20202;-58
2021/12/26 08:59:11;;;;;;;8.40;5.20;;;-2.00;1.00;;;;;;5088830;28;20256;-59
2021/12/26 09:01:38;;;;;;;7.03;5.43;;;-1.90;1.00;;;;;;5087626;28;20236;-58
2021/12/26 09:04:05;;;;;;;7.17;5.00;;;-1.80;1.00;;;;;;5084783;28;20190;-59
2021/12/26 09:06:32;;;;;;;7.53;5.53;;;-1.80;1.00;;;;;;5086070;28;20268;-59
2021/12/26 09:08:59;;;;;;;6.73;5.13;;;-1.80;1.00;;;;;;5088382;28;20194;-58
2021/12/26 09:11:26;;;;;;;8.47;5.37;;;-1.70;1.00;;;;;;5086211;28;20233;-58
2021/12/26 09:13:53;;;;;;;8.80;5.93;;;-1.70;1.00;;;;;;5087376;28;20232;-58
2021/12/26 09:16:20;;;;;;;8.97;5.70;;;-1.70;1.00;;;;;;5086051;28;20194;-58
2021/12/26 09:18:48;;;;;;;7.30;5.37;;;-1.60;1.00;;;;;;5086776;28;20289;-58
2021/12/26 09:21:16;;;;;;;8.87;6.20;;;-1.50;1.00;;;;;;5088160;28;20230;-58
2021/12/26 09:23:43;;;;;;;7.60;5.60;;;-1.50;1.00;;;;;;5086514;28;20248;-59
2021/12/26 09:26:10;;;;;;;9.63;5.77;;;-1.40;1.00;;;;;;5086013;28;20194;-59
2021/12/26 09:28:38;;;;;;;9.07;6.00;;;-1.40;1.00;;;;;;5085664;28;20251;-59
2021/12/26 09:31:05;;;;;;;10.73;6.53;;;-1.30;1.00;;;;;;5086051;28;20242;-58
2021/12/26 09:33:33;;;;;;;7.87;6.30;;;-1.20;1.00;;;;;;5087210;28;20202;-59
2021/12/26 09:36:00;;;;;;;11.00;6.63;;;-1.10;1.00;;;;;;5086576;28;20225;-58
2021/12/26 09:38:28;;;;;;;10.43;6.23;;;-1.10;1.00;;;;;;5086761;28;20215;-58
2021/12/26 09:40:55;;;;;;;8.83;6.17;;;-1.10;1.00;;;;;;5087835;28;20234;-58
2021/12/26 09:43:23;;;;;;;9.77;6.37;;;-1.00;1.00;;;;;;5085828;28;20275;-58
2021/12/26 09:45:51;;;;;;;10.13;6.67;;;-1.00;1.00;;;;;;5085691;28;20544;-59
2021/12/26 09:48:23;;;;;;;9.20;6.40;;;-0.90;1.00;;;;;;5082791;28;20306;-59
2021/12/26 09:50:50;;;;;;;10.10;6.87;;;-0.90;1.00;;;;;;5084719;28;20289;-59
2021/12/26 09:53:17;;;;;;;11.40;6.77;;;-0.90;1.00;;;;;;5085912;28;20202;-59
2021/12/26 09:55:44;;;;;;;10.27;6.47;;;-0.80;1.00;;;;;;5085140;28;20198;-59
2021/12/26 09:58:11;;;;;;;8.40;5.90;;;-0.50;1.00;;;;;;5086756;28;20677;-59
2021/12/26 10:00:41;;;;;;;8.80;6.33;;;-0.90;1.00;;;;;;5083943;28;20260;-59
2021/12/26 10:03:35;;;;;;;9.83;6.57;;;-0.80;1.00;;;;;;5086462;28;20292;-58
2021/12/26 10:06:17;;;;;;;9.77;6.33;;;-0.80;1.00;;;;;;5086585;28;20215;-59
2021/12/26 10:08:59;;;;;;;8.97;5.77;;;-0.80;1.00;;;;;;5087299;28;20224;-57
2021/12/26 10:11:32;;;;;;;11.57;6.60;;;-0.70;1.00;;;;;;5091871;28;20253;-59
2021/12/26 10:14:05;;;;;;;8.33;6.10;;;-0.70;1.00;;;;;;5090203;28;20298;-58
2021/12/26 10:16:39;;;;;;;9.17;6.70;;;-0.60;1.00;;;;;;5090039;28;20186;-58
2021/12/26 10:19:07;;;;;;;7.73;6.33;;;-0.60;1.00;;;;;;5090751;28;20236;-58
2021/12/26 10:22:14;;;;;;;9.23;6.00;;;-0.50;1.00;;;;;;5088092;28;20220;-58
2021/12/26 10:24:49;;;;;;;7.93;5.80;;;-0.50;1.00;;;;;;5064820;28;20233;-59
2021/12/26 10:27:31;;;;;;;11.07;6.43;;;-0.50;25.90;;;;;;5091246;28;20201;-59
2021/12/26 10:30:01;;;;;;;8.83;6.17;;;-0.50;26.80;;;;;;5089317;28;20222;-59
2021/12/26 10:32:37;;;;;;;8.07;6.13;;;-0.40;32.80;;;;;;5090575;28;20470;-59
2021/12/26 10:35:11;;;;;;;10.00;6.33;;;-0.30;28.40;;;;;;5087642;28;20225;-59
2021/12/26 10:37:51;;;;;;;10.17;6.50;;;-0.20;30.90;;;;;;5088980;28;20212;-58
2021/12/26 10:40:27;;;;;;;10.33;6.97;;;-0.20;20.60;;;;;;5103756;28;20301;-58
2021/12/26 10:43:10;;;;;;;10.33;7.17;;;-0.10;25.90;;;;;;5102659;28;20218;-59
2021/12/26 10:45:37;;;;;;;9.60;6.87;;;0.00;1.00;;;;;;5089164;28;20255;-58
2021/12/26 10:48:07;;;;;;;10.67;6.60;;;0.20;1.00;;;;;;5086907;28;20243;-58
2021/12/26 10:50:40;;;;;;;9.87;6.63;;;0.30;1.00;;;;;;5089158;28;20244;-59
2021/12/26 10:53:11;;;;;;;9.53;6.67;;;0.50;1.00;;;;;;5088582;28;20209;-58
2021/12/26 10:55:41;;;;;;;12.13;7.43;;;0.50;1.00;;;;;;5088411;28;20225;-58
2021/12/26 10:58:13;;;;;;;8.77;6.50;;;0.60;1.00;;;;;;5090102;28;20222;-58
2021/12/26 11:00:55;;;;;;;7.80;5.90;;;1.70;1.00;;;;;;5088312;28;20210;-59
2021/12/26 11:03:27;;;;;;;8.10;6.00;;;3.30;1.00;;;;;;5090306;28;20208;-58
2021/12/26 11:06:00;;;;;;;9.73;6.50;;;3.20;99.90;;;;;;5087129;28;20229;-58
2021/12/26 11:08:35;;;;;;;10.13;7.40;;;3.00;99.90;;;;;;5088268;28;20547;-59
2021/12/26 11:11:20;;;;;;;10.30;7.13;;;2.30;1.00;;;;;;5087559;28;20198;-59
2021/12/26 11:13:47;;;;;;;9.27;6.73;;;1.80;1.00;;;;;;5088821;28;20248;-59
2021/12/26 11:16:16;;;;;;;11.33;7.03;;;1.60;1.00;;;;;;5085913;28;20209;-59
2021/12/26 11:18:52;;;;;;;8.97;6.90;;;1.30;1.00;;;;;;5088775;28;20205;-59
2021/12/26 11:21:19;;;;;;;8.83;7.07;;;1.20;1.00;;;;;;5088617;28;20502;-59
2021/12/26 11:23:46;;;;;;;9.23;6.70;;;1.10;1.00;;;;;;5084101;28;20686;-59
2021/12/26 11:26:16;;;;;;;7.30;6.40;;;1.10;1.00;;;;;;5085620;28;20618;-58
2021/12/26 11:28:47;;;;;;;9.70;7.10;;;1.20;1.00;;;;;;5086340;28;20879;-58
2021/12/26 11:31:19;;;;;;;9.07;7.03;;;1.10;1.00;;;;;;5086513;28;20313;-58
2021/12/26 11:33:49;;;;;;;10.73;6.90;;;1.20;1.00;;;;;;5080003;28;20187;-60
2021/12/26 11:36:16;;;;;;;10.00;7.23;;;1.40;1.00;;;;;;5087711;28;20190;-59
2021/12/26 11:38:53;;;;;;;10.73;7.30;;;1.70;1.00;;;;;;5071105;28;20618;-58
2021/12/26 11:41:53;;;;;;;10.40;7.77;;;1.80;1.00;;;;;;5085803;28;20236;-58
2021/12/26 11:44:54;;;;;;;9.87;7.37;;;2.00;1.00;;;;;;5086153;28;20210;-59
2021/12/26 11:48:09;;;;;;;9.97;6.77;;;2.20;1.00;;;;;;5083586;28;20677;-59
2021/12/26 11:51:20;;;;;;;10.20;7.10;;;2.20;1.00;;;;;;5079257;28;20213;-59
2021/12/26 11:54:28;;;;;;;9.63;7.07;;;2.00;1.00;;;;;;5067858;28;20198;-59
2021/12/26 11:57:33;;;;;;;10.00;7.17;;;1.70;1.00;;;;;;5084497;28;20216;-59
2021/12/26 12:00:17;;;;;;;10.50;7.43;;;1.50;1.00;;;;;;5082066;28;20707;-59
2021/12/26 12:02:44;;;;;;;9.67;7.30;;;1.50;1.00;;;;;;5087126;28;20717;-59
2021/12/26 12:05:21;;;;;;;11.23;6.83;;;1.60;1.00;;;;;;5086050;28;20201;-59
2021/12/26 12:07:56;;;;;;;11.70;7.47;;;1.60;1.00;;;;;;5083659;28;20199;-59
2021/12/26 12:10:30;;;;;;;10.37;7.70;;;1.60;1.00;;;;;;5081145;28;20193;-59
2021/12/26 12:12:57;;;;;;;10.40;7.47;;;1.60;1.00;;;;;;5081565;28;20198;-59
2021/12/26 12:15:41;;;;;;;10.87;7.60;;;1.80;1.00;;;;;;5086891;28;20186;-59
2021/12/26 12:18:30;;;;;;;9.33;7.17;;;1.90;1.00;;;;;;5085650;28;20214;-58
2021/12/26 12:21:14;;;;;;;11.13;7.53;;;2.00;1.00;;;;;;5086928;28;20340;-58
2021/12/26 12:24:00;;;;;;;11.23;7.90;;;2.00;1.00;;;;;;5089675;28;20322;-59
2021/12/26 12:26:51;;;;;;;9.67;6.80;;;2.20;1.00;;;;;;5090009;28;20196;-59
2021/12/26 12:29:24;;;;;;;9.57;7.67;;;2.10;1.00;;;;;;5085472;28;20221;-59
2021/12/26 12:32:06;;;;;;;11.83;8.30;;;2.00;1.00;;;;;;5089265;28;20305;-59
2021/12/26 12:34:51;;;;;;;11.10;8.10;;;2.00;1.00;;;;;;5087044;28;20194;-59
2021/12/26 12:37:44;;;;;;;9.80;7.53;;;2.10;1.00;;;;;;5089476;28;20244;-59
2021/12/26 12:40:25;;;;;;;10.47;6.93;;;2.10;1.00;;;;;;5088308;28;20222;-59
2021/12/26 12:43:03;;;;;;;24.83;13.00;;;1.90;1.00;;;;;;5103625;28;20202;-59
2021/12/26 12:46:01;;;;;;;12.23;8.47;;;2.00;23.00;;;;;;5088145;28;20194;-59
2021/12/26 12:48:41;;;;;;;27.80;14.63;;;2.10;1.00;;;;;;5085410;28;20555;-59
2021/12/26 12:51:18;;;;;;;34.83;16.93;;;2.20;1.00;;;;;;5085183;28;20247;-59
2021/12/26 12:53:50;;;;;;;13.20;9.67;;;2.20;1.00;;;;;;5089271;28;20194;-59
2021/12/26 12:56:33;;;;;;;14.40;9.87;;;2.10;20.30;;;;;;5086810;28;20194;-58
2021/12/26 12:59:12;;;;;;;10.30;8.10;;;2.00;27.60;;;;;;5087997;28;20961;-58
2021/12/26 13:01:59;;;;;;;12.40;7.73;;;2.00;37.60;;;;;;5090446;28;20201;-58
2021/12/26 13:04:50;;;;;;;14.27;8.63;;;2.00;63.30;;;;;;5101036;28;20213;-58
2021/12/26 13:07:26;;;;;;;16.03;11.13;;;1.90;89.30;;;;;;5089093;28;20273;-58
2021/12/26 13:09:59;;;;;;;11.13;8.17;;;1.90;99.90;;;;;;5087281;28;20235;-59
2021/12/26 13:12:26;;;;;;;11.37;8.90;;;1.90;99.90;;;;;;5085868;28;20557;-58
2021/12/26 13:14:55;;;;;;;10.73;7.90;;;1.80;99.90;;;;;;5087471;28;20273;-59
2021/12/26 13:17:25;;;;;;;12.07;8.27;;;1.90;99.90;;;;;;5095102;28;20635;-58
2021/12/26 13:19:59;;;;;;;9.47;7.50;;;1.90;99.90;;;;;;5082243;28;20210;-58
2021/12/26 13:22:58;;;;;;;12.27;8.37;;;1.90;99.90;;;;;;5086469;28;20633;-58
2021/12/26 13:25:34;;;;;;;12.43;8.23;;;1.70;99.90;;;;;;5086914;28;21187;-59
2021/12/26 13:28:10;;;;;;;15.53;8.53;;;1.70;99.90;;;;;;5081107;28;20189;-58